SBOSBO EXT / EGTE
Speedbird OnlineSpeedbird Online EXT / EGTE

Exeter International Airport
22:10 12.5°C

Location Exeter, United Kingdom
Latitude: 50.73440170288086
Longitude: -3.4138898849487305
Local Time 22:10 on 29 May 2024
UTC +1 hours (Europe/London)
METAR EGTE 292050Z 31005KT 270V340 9999 FEW035 12/10 Q1012
TAF TAF EGTE 292000Z 2921/3003 29007KT 9999 FEW030 PROB30 2921/2924 BKN009
Weather As Of 29 May 2024 22:10
Description Few clouds
Wind 9 km/h from North-West (310°)
Cloud Cover 20%
Precipitation Rain: none, Snow: none
Sunrise 05:08
Sunset 21:14
NOTAM 4 active NOTAM
Rotations During the last 90 days there were
13 flights from LCY
7 flights from EXT
2 flights from
12 flights to LCY
7 flights to EXT
Web Airport Website | Wikipedia
Codes IATA: EXT
ICAO: EGTE
Altitude 31 Meter / 102 Feet
Distance 262 KM / 163 Miles
from London.
Runways
RunwayLength (m)Surface
082083Asphalt
131339Asphalt
262083Asphalt
311339Asphalt
Radio
TypeDescriptionFrequency
APPAPP128.975
ATISATIS119.325
RadarEXETER Radar123.57
TWRTWR119.8
Live ATC



Support Speedbird Online

© 2017-2024 Speedbird Online